Time,TemperatureF,DewpointF,PressureIn,WindDirection,WindDirectionDegrees,WindSpeedMPH,WindSpeedGustMPH,Humidity,HourlyPrecipIn,Conditions,Clouds,dailyrainin,SoftwareType,DateUTC
2013-08-15 00:03:00,56.4,51.9,29.95,SSW,212,0.0,21.0,85,0.00,CLR,,0.00,WeatherDisplay:10.37,2013-08-15 04:03:00,
2013-08-15 00:13:00,56.1,51.7,29.95,SSW,197,0.0,0.0,85,0.00,CLR,,0.00,WeatherDisplay:10.37,2013-08-15 04:13:00,
2013-08-15 00:23:00,55.7,51.6,29.96,SSW,197,0.0,0.0,86,0.00,CLR,,0.00,WeatherDisplay:10.37,2013-08-15 04:23:00,
2013-08-15 00:33:00,55.2,51.7,29.97,SSW,197,0.0,0.0,88,0.00,CLR,,0.00,WeatherDisplay:10.37,2013-08-15 04:33:00,
2013-08-15 00:43:00,54.8,51.3,29.97,SSW,209,0.0,0.0,88,0.00,CLR,,0.00,WeatherDisplay:10.37,2013-08-15 04:43:00,
2013-08-15 00:53:00,54.5,51.6,29.97,West,261,0.0,0.0,90,0.00,CLR,,0.00,WeatherDisplay:10.37,2013-08-15 04:53:00,
2013-08-15 01:03:00,54.2,51.3,29.97,West,260,0.0,0.0,90,0.00,CLR,,0.00,WeatherDisplay:10.37,2013-08-15 05:03:00,
2013-08-15 01:13:00,53.8,50.9,29.97,West,260,0.0,0.0,90,0.00,CLR,,0.00,WeatherDisplay:10.37,2013-08-15 05:13:00,
2013-08-15 01:23:00,53.4,50.8,29.97,West,261,0.0,0.0,91,0.00,CLR,,0.00,WeatherDisplay:10.37,2013-08-15 05:23:00,
2013-08-15 01:33:00,53.0,50.7,29.97,WSW,258,0.0,0.0,92,0.00,CLR,,0.00,WeatherDisplay:10.37,2013-08-15 05:33:00,
2013-08-15 01:43:00,52.9,50.6,29.97,SW,225,0.0,0.0,92,0.00,CLR,,0.00,WeatherDisplay:10.37,2013-08-15 05:43:00,
2013-08-15 01:53:00,52.9,50.1,29.98,NW,312,0.0,3.0,90,0.00,CLR,,0.00,WeatherDisplay:10.37,2013-08-15 05:53:00,
2013-08-15 02:03:00,52.9,50.0,29.98,WSW,257,0.0,0.0,90,0.00,CLR,,0.00,WeatherDisplay:10.37,2013-08-15 06:03:00,
2013-08-15 02:13:00,53.0,49.5,29.98,West,279,0.0,0.0,88,0.00,CLR,,0.00,WeatherDisplay:10.37,2013-08-15 06:13:00,
2013-08-15 02:23:00,53.1,49.6,29.98,West,271,0.0,0.0,88,0.00,CLR,,0.00,WeatherDisplay:10.37,2013-08-15 06:23:00,
2013-08-15 02:33:00,53.2,49.4,29.98,West,265,0.0,1.0,87,0.00,CLR,,0.00,WeatherDisplay:10.37,2013-08-15 06:33:00,
2013-08-15 02:43:00,53.5,49.4,29.98,West,261,0.0,4.0,86,0.00,CLR,,0.00,WeatherDisplay:10.37,2013-08-15 06:43:00,
2013-08-15 02:53:00,53.6,49.5,29.98,West,265,0.0,6.0,86,0.00,CLR,,0.00,WeatherDisplay:10.37,2013-08-15 06:53:00,
2013-08-15 03:03:00,53.9,49.5,29.99,West,259,0.0,2.0,85,0.00,CLR,,0.00,WeatherDisplay:10.37,2013-08-15 07:03:00,
2013-08-15 03:13:00,53.8,49.4,29.99,WSW,237,0.0,0.0,85,0.00,CLR,,0.00,WeatherDisplay:10.37,2013-08-15 07:13:00,
2013-08-15 03:23:00,53.3,49.2,29.99,WSW,237,0.0,0.0,86,0.00,CLR,,0.00,WeatherDisplay:10.37,2013-08-15 07:23:00,
2013-08-15 03:33:00,53.0,49.2,30.00,WSW,250,0.0,2.0,87,0.00,CLR,,0.00,WeatherDisplay:10.37,2013-08-15 07:33:00,
2013-08-15 03:43:00,52.9,49.1,30.00,SW,236,0.0,2.0,87,0.00,CLR,,0.00,WeatherDisplay:10.37,2013-08-15 07:43:00,
2013-08-15 03:53:00,53.3,49.5,30.00,WSW,252,0.0,0.0,87,0.00,CLR,,0.00,WeatherDisplay:10.37,2013-08-15 07:53:00,
2013-08-15 04:03:00,53.4,49.6,30.00,SW,234,0.0,0.0,87,0.00,CLR,,0.00,WeatherDisplay:10.37,2013-08-15 08:03:00,
2013-08-15 04:13:00,52.7,49.2,30.00,SW,234,0.0,0.0,88,0.00,CLR,,0.00,WeatherDisplay:10.37,2013-08-15 08:13:00,
2013-08-15 04:23:00,52.3,49.2,30.00,SW,235,0.0,0.0,89,0.00,CLR,,0.00,WeatherDisplay:10.37,2013-08-15 08:23:00,
2013-08-15 04:33:00,52.4,49.6,30.01,SW,236,0.0,0.0,90,0.00,CLR,,0.00,WeatherDisplay:10.37,2013-08-15 08:33:00,
2013-08-15 04:43:00,52.6,49.8,30.01,WSW,244,0.0,0.0,90,0.00,CLR,,0.00,WeatherDisplay:10.37,2013-08-15 08:43:00,
2013-08-15 04:53:00,52.6,49.4,30.01,WSW,250,0.0,0.0,89,0.00,CLR,,0.00,WeatherDisplay:10.37,2013-08-15 08:53:00,
2013-08-15 05:03:00,52.7,49.5,30.02,WSW,245,0.0,1.0,89,0.00,CLR,,0.00,WeatherDisplay:10.37,2013-08-15 09:03:00,
2013-08-15 05:13:00,52.6,49.4,30.02,WSW,246,0.0,0.0,89,0.00,CLR,,0.00,WeatherDisplay:10.37,2013-08-15 09:13:00,
2013-08-15 05:23:00,52.3,49.2,30.02,WSW,247,0.0,0.0,89,0.00,CLR,,0.00,WeatherDisplay:10.37,2013-08-15 09:23:00,
2013-08-15 05:33:00,52.3,49.5,30.02,WSW,247,0.0,0.0,90,0.00,CLR,,0.00,WeatherDisplay:10.37,2013-08-15 09:33:00,
2013-08-15 05:43:00,52.0,49.2,30.02,WSW,247,0.0,0.0,90,0.00,CLR,,0.00,WeatherDisplay:10.37,2013-08-15 09:43:00,
2013-08-15 05:53:00,52.1,49.3,30.03,WSW,247,0.0,0.0,90,0.00,CLR,,0.00,WeatherDisplay:10.37,2013-08-15 09:53:00,
2013-08-15 06:03:00,52.3,49.5,30.04,WSW,247,0.0,0.0,90,0.00,CLR,,0.00,WeatherDisplay:10.37,2013-08-15 10:03:00,
2013-08-15 06:13:00,52.4,49.5,30.04,WSW,246,0.0,0.0,90,0.00,CLR,,0.00,WeatherDisplay:10.37,2013-08-15 10:13:00,
2013-08-15 06:23:00,52.6,49.4,30.05,WSW,244,0.0,0.0,89,0.00,CLR,,0.00,WeatherDisplay:10.37,2013-08-15 10:23:00,
2013-08-15 06:33:00,53.3,49.6,30.05,WSW,248,0.0,1.0,87,0.00,CLR,,0.00,WeatherDisplay:10.37,2013-08-15 10:33:00,
2013-08-15 06:43:00,54.2,50.1,30.05,WSW,258,0.0,0.0,86,0.00,CLR,,0.00,WeatherDisplay:10.37,2013-08-15 10:43:00,
2013-08-15 06:53:00,54.9,50.2,30.05,WSW,248,0.0,2.0,84,0.00,CLR,,0.00,WeatherDisplay:10.37,2013-08-15 10:53:00,
2013-08-15 07:03:00,55.8,50.0,30.04,West,260,0.0,0.0,81,0.00,CLR,,0.00,WeatherDisplay:10.37,2013-08-15 11:03:00,
2013-08-15 07:13:00,56.9,50.8,30.04,West,275,0.0,0.0,80,0.00,CLR,,0.00,WeatherDisplay:10.37,2013-08-15 11:13:00,
2013-08-15 07:23:00,57.4,50.9,30.04,West,271,0.0,0.0,79,0.00,CLR,,0.00,WeatherDisplay:10.37,2013-08-15 11:23:00,
2013-08-15 07:33:00,57.5,51.0,30.04,NW,308,0.0,0.0,79,0.00,CLR,,0.00,WeatherDisplay:10.37,2013-08-15 11:33:00,
2013-08-15 07:43:00,58.0,51.5,30.04,West,260,0.0,1.0,79,0.00,CLR,,0.00,WeatherDisplay:10.37,2013-08-15 11:43:00,
2013-08-15 07:53:00,58.4,51.6,30.04,WNW,294,0.0,3.0,78,0.00,CLR,,0.00,WeatherDisplay:10.37,2013-08-15 11:53:00,
2013-08-15 08:03:00,58.9,51.3,30.05,WSW,245,0.0,1.0,76,0.00,CLR,,0.00,WeatherDisplay:10.37,2013-08-15 12:03:00,
2013-08-15 08:13:00,59.4,51.8,30.05,WSW,256,0.0,3.0,76,0.00,CLR,,0.00,WeatherDisplay:10.37,2013-08-15 12:13:00,
2013-08-15 08:23:00,60.0,51.7,30.05,West,264,0.0,1.0,74,0.00,CLR,,0.00,WeatherDisplay:10.37,2013-08-15 12:23:00,
2013-08-15 08:33:00,60.6,52.3,30.05,WNW,293,0.0,5.0,74,0.00,CLR,,0.00,WeatherDisplay:10.37,2013-08-15 12:33:00,
2013-08-15 08:43:00,61.2,52.1,30.05,West,266,0.0,3.0,72,0.00,CLR,,0.00,WeatherDisplay:10.37,2013-08-15 12:43:00,
2013-08-15 08:53:00,61.9,52.8,30.05,West,260,0.0,3.0,72,0.00,CLR,,0.00,WeatherDisplay:10.37,2013-08-15 12:53:00,
2013-08-15 09:03:00,62.3,51.6,30.05,WNW,288,0.0,1.0,68,0.00,CLR,,0.00,WeatherDisplay:10.37,2013-08-15 13:03:00,
2013-08-15 09:13:00,62.7,50.8,30.05,WNW,301,0.0,6.0,65,0.00,CLR,,0.00,WeatherDisplay:10.37,2013-08-15 13:13:00,
2013-08-15 09:23:00,63.3,51.3,30.05,WSW,256,1.0,5.0,65,0.00,CLR,,0.00,WeatherDisplay:10.37,2013-08-15 13:23:00,
2013-08-15 09:33:00,64.0,52.0,30.06,WSW,245,0.0,5.0,65,0.00,CLR,,0.00,WeatherDisplay:10.37,2013-08-15 13:33:00,
2013-08-15 09:43:00,64.1,51.7,30.06,WNW,283,0.0,5.0,64,0.00,CLR,,0.00,WeatherDisplay:10.37,2013-08-15 13:43:00,
2013-08-15 09:53:00,64.6,50.8,30.05,NW,317,1.0,7.0,61,0.00,CLR,,0.00,WeatherDisplay:10.37,2013-08-15 13:53:00,
2013-08-15 10:03:00,65.1,51.8,30.06,WSW,256,0.0,3.0,62,0.00,CLR,,0.00,WeatherDisplay:10.37,2013-08-15 14:03:00,
2013-08-15 10:13:00,65.7,51.0,30.06,WSW,245,0.0,5.0,59,0.00,CLR,,0.00,WeatherDisplay:10.37,2013-08-15 14:13:00,
2013-08-15 10:23:00,66.1,52.3,30.06,West,270,0.0,5.0,61,0.00,CLR,,0.00,WeatherDisplay:10.37,2013-08-15 14:23:00,
2013-08-15 10:33:00,66.9,50.2,30.06,WSW,238,0.0,9.0,55,0.00,CLR,,0.00,WeatherDisplay:10.37,2013-08-15 14:33:00,
2013-08-15 10:43:00,67.6,50.8,30.06,WNW,283,1.0,5.0,55,0.00,CLR,,0.00,WeatherDisplay:10.37,2013-08-15 14:43:00,
2013-08-15 10:53:00,67.4,50.7,30.06,West,278,0.0,5.0,55,0.00,CLR,,0.00,WeatherDisplay:10.37,2013-08-15 14:53:00,
2013-08-15 11:03:00,67.8,51.5,30.06,NW,318,0.0,4.0,56,0.00,CLR,,0.00,WeatherDisplay:10.37,2013-08-15 15:03:00,
2013-08-15 11:13:00,68.2,51.9,30.06,West,271,2.0,9.0,56,0.00,CLR,,0.00,WeatherDisplay:10.37,2013-08-15 15:13:00,
2013-08-15 11:23:00,68.7,51.8,30.06,WSW,254,1.0,7.0,55,0.00,CLR,,0.00,WeatherDisplay:10.37,2013-08-15 15:23:00,
2013-08-15 11:33:00,68.6,51.3,30.06,West,260,1.0,10.0,54,0.00,CLR,,0.00,WeatherDisplay:10.37,2013-08-15 15:33:00,
2013-08-15 11:43:00,69.6,51.7,30.06,WSW,252,0.0,10.0,53,0.00,CLR,,0.00,WeatherDisplay:10.37,2013-08-15 15:43:00,
2013-08-15 11:53:00,70.2,54.3,30.05,SW,236,0.0,10.0,57,0.00,CLR,,0.00,WeatherDisplay:10.37,2013-08-15 15:53:00,
2013-08-15 12:03:00,69.9,51.5,30.05,WNW,299,1.0,10.0,52,0.00,CLR,,0.00,WeatherDisplay:10.37,2013-08-15 16:03:00,
2013-08-15 12:13:00,69.9,51.9,30.05,NW,308,0.0,10.0,53,0.00,CLR,,0.00,WeatherDisplay:10.37,2013-08-15 16:13:00,
2013-08-15 12:33:00,70.1,50.6,30.05,West,271,1.0,10.0,50,0.00,FEW,,0.00,WeatherDisplay:10.37,2013-08-15 16:33:00,
2013-08-15 12:43:00,70.1,52.2,30.05,West,259,1.0,12.0,53,0.00,FEW,,0.00,WeatherDisplay:10.37,2013-08-15 16:43:00,
2013-08-15 12:53:00,70.3,51.3,30.04,WNW,289,0.0,11.0,51,0.00,FEW,,0.00,WeatherDisplay:10.37,2013-08-15 16:53:00,
2013-08-15 13:03:00,70.1,50.6,30.04,WSW,242,1.0,12.0,50,0.00,BKN,,0.00,WeatherDisplay:10.37,2013-08-15 17:03:00,
2013-08-15 13:13:00,71.5,53.5,30.04,WSW,250,1.0,11.0,53,0.00,BKN,,0.00,WeatherDisplay:10.37,2013-08-15 17:13:00,
2013-08-15 13:23:00,71.8,52.7,30.04,West,270,0.0,11.0,51,0.00,BKN,,0.00,WeatherDisplay:10.37,2013-08-15 17:23:00,
2013-08-15 13:33:00,70.6,51.6,30.04,West,261,0.0,11.0,51,0.00,BKN,,0.00,WeatherDisplay:10.37,2013-08-15 17:33:00,
2013-08-15 13:43:00,71.0,53.5,30.04,West,274,1.0,13.0,54,0.00,BKN,,0.00,WeatherDisplay:10.37,2013-08-15 17:43:00,
2013-08-15 13:53:00,71.1,51.5,30.04,West,280,0.0,12.0,50,0.00,BKN,,0.00,WeatherDisplay:10.37,2013-08-15 17:53:00,
2013-08-15 14:03:00,71.6,50.9,30.03,West,280,5.0,12.0,48,0.00,BKN,,0.00,WeatherDisplay:10.37,2013-08-15 18:03:00,
2013-08-15 14:33:00,73.0,53.2,30.02,West,271,1.0,10.0,50,0.00,SCT,,0.00,WeatherDisplay:10.37,2013-08-15 18:33:00,
2013-08-15 14:53:00,72.4,51.0,30.02,WSW,255,0.0,10.0,47,0.00,SCT,,0.00,WeatherDisplay:10.37,2013-08-15 18:53:00,
2013-08-15 15:03:00,73.0,52.2,30.02,WSW,258,1.0,8.0,48,0.00,FEW,,0.00,WeatherDisplay:10.37,2013-08-15 19:03:00,
2013-08-15 15:13:00,73.7,52.2,30.02,West,271,0.0,5.0,47,0.00,FEW,,0.00,WeatherDisplay:10.37,2013-08-15 19:13:00,
2013-08-15 15:23:00,73.2,52.3,30.02,WNW,294,0.0,13.0,48,0.00,FEW,,0.00,WeatherDisplay:10.37,2013-08-15 19:23:00,
2013-08-15 15:33:00,73.0,51.6,30.02,NW,321,0.0,10.0,47,0.00,FEW,,0.00,WeatherDisplay:10.37,2013-08-15 19:33:00,
2013-08-15 15:43:00,72.1,50.8,30.02,West,269,0.0,10.0,47,0.00,FEW,,0.00,WeatherDisplay:10.37,2013-08-15 19:43:00,
2013-08-15 15:53:00,70.9,50.8,30.02,WSW,252,1.0,7.0,49,0.00,FEW,,0.00,WeatherDisplay:10.37,2013-08-15 19:53:00,
2013-08-15 16:03:00,71.6,50.3,30.01,West,267,1.0,12.0,47,0.00,FEW,,0.00,WeatherDisplay:10.37,2013-08-15 20:03:00,
2013-08-15 16:13:00,72.0,50.7,30.01,WNW,290,1.0,10.0,47,0.00,FEW,,0.00,WeatherDisplay:10.37,2013-08-15 20:13:00,
2013-08-15 16:23:00,71.9,50.6,30.01,WSW,249,0.0,5.0,47,0.00,FEW,,0.00,WeatherDisplay:10.37,2013-08-15 20:23:00,
2013-08-15 16:33:00,71.6,53.0,30.01,WSW,256,1.0,9.0,52,0.00,FEW,,0.00,WeatherDisplay:10.37,2013-08-15 20:33:00,
2013-08-15 16:43:00,71.3,50.6,30.01,WNW,284,0.0,12.0,48,0.00,FEW,,0.00,WeatherDisplay:10.37,2013-08-15 20:43:00,
2013-08-15 16:53:00,71.3,50.6,30.01,WSW,247,0.0,10.0,48,0.00,FEW,,0.00,WeatherDisplay:10.37,2013-08-15 20:53:00,
2013-08-15 17:03:00,71.5,51.3,30.01,West,259,1.0,7.0,49,0.00,SCT,,0.00,WeatherDisplay:10.37,2013-08-15 21:03:00,
2013-08-15 17:13:00,72.0,51.2,30.01,West,274,1.0,12.0,48,0.00,SCT,,0.00,WeatherDisplay:10.37,2013-08-15 21:13:00,
2013-08-15 17:23:00,71.6,50.9,30.01,SW,223,0.0,6.0,48,0.00,SCT,,0.00,WeatherDisplay:10.37,2013-08-15 21:23:00,
2013-08-15 17:43:00,70.8,51.2,30.02,West,267,1.0,7.0,50,0.00,SCT,,0.00,WeatherDisplay:10.37,2013-08-15 21:43:00,
2013-08-15 17:53:00,70.8,51.8,30.01,West,279,0.0,5.0,51,0.00,SCT,,0.00,WeatherDisplay:10.37,2013-08-15 21:53:00,
2013-08-15 18:03:00,70.6,51.1,30.02,West,265,1.0,5.0,50,0.00,SCT,,0.00,WeatherDisplay:10.37,2013-08-15 22:03:00,
2013-08-15 18:13:00,70.6,52.1,30.02,WSW,256,0.0,7.0,52,0.00,SCT,,0.00,WeatherDisplay:10.37,2013-08-15 22:13:00,
2013-08-15 18:23:00,70.3,51.8,30.02,West,265,0.0,9.0,52,0.00,BKN,,0.00,WeatherDisplay:10.37,2013-08-15 22:23:00,
2013-08-15 18:33:00,70.1,52.2,30.02,West,270,0.0,6.0,53,0.00,BKN,,0.00,WeatherDisplay:10.37,2013-08-15 22:33:00,
2013-08-15 18:43:00,69.5,52.6,30.02,WNW,282,1.0,4.0,55,0.00,BKN,,0.00,WeatherDisplay:10.37,2013-08-15 22:43:00,
2013-08-15 18:53:00,68.7,52.4,30.02,West,273,0.0,7.0,56,0.00,BKN,,0.00,WeatherDisplay:10.37,2013-08-15 22:53:00,
2013-08-15 19:13:00,67.6,52.3,30.02,West,267,0.0,5.0,58,0.00,CLR,,0.00,WeatherDisplay:10.37,2013-08-15 23:13:00,
2013-08-15 19:23:00,67.0,52.2,30.03,WSW,245,0.0,0.0,59,0.00,CLR,,0.00,WeatherDisplay:10.37,2013-08-15 23:23:00,
2013-08-15 19:33:00,66.3,52.9,30.04,WSW,246,0.0,0.0,62,0.00,CLR,,0.00,WeatherDisplay:10.37,2013-08-15 23:33:00,
2013-08-15 19:43:00,65.5,52.5,30.04,WSW,245,0.0,0.0,63,0.00,CLR,,0.00,WeatherDisplay:10.37,2013-08-15 23:43:00,
2013-08-15 19:53:00,64.6,52.6,30.04,West,261,0.0,0.0,65,0.00,CLR,,0.00,WeatherDisplay:10.37,2013-08-15 23:53:00,
2013-08-15 20:03:00,63.8,52.7,30.05,West,259,0.0,0.0,67,0.00,FEW,,0.00,WeatherDisplay:10.37,2013-08-16 00:03:00,
2013-08-15 20:13:00,63.0,52.7,30.05,West,259,0.0,0.0,69,0.00,FEW,,0.00,WeatherDisplay:10.37,2013-08-16 00:13:00,
2013-08-15 20:23:00,62.5,52.6,30.05,West,260,0.0,0.0,70,0.00,FEW,,0.00,WeatherDisplay:10.37,2013-08-16 00:23:00,
2013-08-15 20:33:00,62.0,52.5,30.05,WSW,257,0.0,0.0,71,0.00,FEW,,0.00,WeatherDisplay:10.37,2013-08-16 00:33:00,
2013-08-15 20:43:00,61.5,52.4,30.05,WNW,285,0.0,1.0,72,0.00,FEW,,0.00,WeatherDisplay:10.37,2013-08-16 00:43:00,
2013-08-15 20:53:00,61.1,52.8,30.07,WSW,251,0.0,0.0,74,0.00,FEW,,0.00,WeatherDisplay:10.37,2013-08-16 00:53:00,
2013-08-15 21:03:00,60.8,52.8,30.07,WSW,241,0.0,0.0,75,0.00,FEW,,0.00,WeatherDisplay:10.37,2013-08-16 01:03:00,
2013-08-15 21:13:00,60.4,52.4,30.07,SW,233,0.0,0.0,75,0.00,FEW,,0.00,WeatherDisplay:10.37,2013-08-16 01:13:00,
2013-08-15 21:23:00,60.4,52.4,30.08,WSW,239,0.0,0.0,75,0.00,FEW,,0.00,WeatherDisplay:10.37,2013-08-16 01:23:00,
2013-08-15 21:43:00,59.8,53.3,30.08,WSW,239,0.0,0.0,79,0.00,FEW,,0.00,WeatherDisplay:10.37,2013-08-16 01:43:00,
2013-08-15 21:53:00,59.5,53.3,30.09,WSW,239,0.0,0.0,80,0.00,FEW,,0.00,WeatherDisplay:10.37,2013-08-16 01:53:00,
2013-08-15 22:03:00,59.0,53.5,30.10,WSW,240,0.0,0.0,82,0.00,FEW,,0.00,WeatherDisplay:10.37,2013-08-16 02:03:00,
2013-08-15 22:13:00,58.7,53.5,30.10,WSW,240,0.0,0.0,83,0.00,FEW,,0.00,WeatherDisplay:10.37,2013-08-16 02:13:00,
2013-08-15 22:23:00,58.6,53.7,30.10,WSW,239,0.0,0.0,84,0.00,FEW,,0.00,WeatherDisplay:10.37,2013-08-16 02:23:00,
2013-08-15 22:33:00,58.4,53.9,30.10,WSW,240,0.0,0.0,85,0.00,FEW,,0.00,WeatherDisplay:10.37,2013-08-16 02:33:00,
2013-08-15 22:43:00,58.0,53.2,30.10,WSW,240,0.0,0.0,84,0.00,FEW,,0.00,WeatherDisplay:10.37,2013-08-16 02:43:00,
2013-08-15 22:53:00,57.7,52.6,30.09,WSW,240,0.0,0.0,83,0.00,FEW,,0.00,WeatherDisplay:10.37,2013-08-16 02:53:00,
2013-08-15 23:03:00,57.4,52.3,30.09,WSW,240,0.0,0.0,83,0.00,FEW,,0.00,WeatherDisplay:10.37,2013-08-16 03:03:00,
2013-08-15 23:13:00,57.1,52.0,30.09,WSW,240,0.0,0.0,83,0.00,FEW,,0.00,WeatherDisplay:10.37,2013-08-16 03:13:00,
2013-08-15 23:23:00,56.6,51.8,30.09,WSW,240,0.0,0.0,84,0.00,FEW,,0.00,WeatherDisplay:10.37,2013-08-16 03:23:00,
2013-08-15 23:33:00,56.3,51.8,30.09,WSW,241,0.0,0.0,85,0.00,FEW,,0.00,WeatherDisplay:10.37,2013-08-16 03:33:00,
2013-08-15 23:43:00,56.1,51.6,30.09,WSW,240,0.0,0.0,85,0.00,FEW,,0.00,WeatherDisplay:10.37,2013-08-16 03:43:00,
2013-08-15 23:53:00,56.0,51.6,30.10,WSW,241,0.0,0.0,85,0.00,FEW,,0.00,WeatherDisplay:10.37,2013-08-16 03:53:00,